Capitol Logistics 265




KSAV
Savannah/Hilton Head International Airport
Savannah, Georgia
KMIA
Miami International Airport
Miami, Florida

Activity Log

Date Flight Route Aircraft Duration
11/07/2021 CPX265 GIPPL WOPNR Q97 KENLL OMN HILEY7 B752 1h 23m
08/14/2021 CPX3265 WISPR KELER V437 OMN HILEY7 SF34 1h 57m
04/09/2021 CPX3265 GIPPL WOPNR KENLL OMN HILEY7 SF34 1h 57m
03/30/2021 CPX3265 TYBEE V1 Y V437 OMN V3 TRV V51 PHK V267 PIONN EPENY SF34 1h 49m
04/09/2020 CPX3265 KELER V437 OMN V3 FLL B752 1h 24m
12/24/2019 CPX3265 KELER V437 OMN V3 FLL SF34 2h 10m
11/27/2019 CPX3265 KELER V437 OMN V3 FLL SF34 2h 04m
10/11/2019 CPX665 KELER V437 OMN V3 FLL SF34 1h 58m
09/24/2019 CPX665 KELER V437 OMN V3 FLL SF34 1h 46m
05/02/2019 CPX665 OMN PHK SF34 1h 32m
03/24/2019 CPX665 KELER V437 OMN V3 FLL SF34 1h 52m

Route Details

Aircraft Information
Group: Narrowbodies
Types: B738,B752
Route Data
Demand: V
Distance: 384nm
Duration: 1h 39m
Recm'd Route: GIPPL WOPNR Q97 KENLL OMN HILEY7
Origin Wx: KSAV 270653Z AUTO 18012KT 10SM -RA BKN017 BKN025 OVC075 25/22 A2997 RMK AO2 RAE00B49 SLP147 P0000 T02500222
Dest. Wx: KMIA 270653Z 11005KT 10SM FEW060 SCT090 26/23 A3002 RMK AO2 SLP166 T02560228 $
Notes:

Financial History
Total Freight: 163,790lbs
Average Load: 14,890lbs/flt
Fuel Used: 45,294lbs
Avg. Fuel Used: 4,118lbs/flt
Fuel Expense: $35,992
Avg. Fuel Expense: $3,272
Avg. Fuel Cost: $0.85/lbs
Total Gross Income: $242,422
Pilot Pay: $2,409
Total Expenses: $41,596
Total Revenue: $160,638
Average Revenue: $22,038.40